sensor_id;sensor_type;location;lat;lon;timestamp;temperature;humidity
14985;DHT22;7588;62.368;25.902;2022-12-07T00:00:53;-0.20;99.90
14985;DHT22;7588;62.368;25.902;2022-12-07T00:03:19;-0.20;99.90
14985;DHT22;7588;62.368;25.902;2022-12-07T00:05:45;-0.20;99.90
14985;DHT22;7588;62.368;25.902;2022-12-07T00:08:10;-0.20;99.90
14985;DHT22;7588;62.368;25.902;2022-12-07T00:10:36;-0.20;99.90
14985;DHT22;7588;62.368;25.902;2022-12-07T00:13:02;-0.20;99.90
14985;DHT22;7588;62.368;25.902;2022-12-07T00:15:28;-0.20;99.90
14985;DHT22;7588;62.368;25.902;2022-12-07T00:17:53;-0.20;99.90
14985;DHT22;7588;62.368;25.902;2022-12-07T00:20:19;-0.20;99.90
14985;DHT22;7588;62.368;25.902;2022-12-07T00:22:45;-0.30;99.90
14985;DHT22;7588;62.368;25.902;2022-12-07T00:25:10;-0.30;99.90
14985;DHT22;7588;62.368;25.902;2022-12-07T00:27:36;-0.20;99.90
14985;DHT22;7588;62.368;25.902;2022-12-07T00:30:02;-0.20;99.90
14985;DHT22;7588;62.368;25.902;2022-12-07T00:32:28;-0.30;99.90
14985;DHT22;7588;62.368;25.902;2022-12-07T00:34:54;-0.40;99.90
14985;DHT22;7588;62.368;25.902;2022-12-07T00:37:19;-0.40;99.90
14985;DHT22;7588;62.368;25.902;2022-12-07T00:39:46;-0.40;99.90
14985;DHT22;7588;62.368;25.902;2022-12-07T00:42:12;-0.50;99.90
14985;DHT22;7588;62.368;25.902;2022-12-07T00:44:37;-0.50;99.90
14985;DHT22;7588;62.368;25.902;2022-12-07T00:47:03;-0.50;99.90
14985;DHT22;7588;62.368;25.902;2022-12-07T00:49:29;-0.40;99.90
14985;DHT22;7588;62.368;25.902;2022-12-07T00:51:54;-0.40;99.90
14985;DHT22;7588;62.368;25.902;2022-12-07T00:54:20;-0.50;99.90
14985;DHT22;7588;62.368;25.902;2022-12-07T00:56:46;-0.50;99.90
14985;DHT22;7588;62.368;25.902;2022-12-07T00:59:13;-0.50;99.90
14985;DHT22;7588;62.368;25.902;2022-12-07T01:01:41;-0.50;99.90
14985;DHT22;7588;62.368;25.902;2022-12-07T01:04:07;-0.50;99.90
14985;DHT22;7588;62.368;25.902;2022-12-07T01:06:34;-0.50;99.90
14985;DHT22;7588;62.368;25.902;2022-12-07T01:08:59;-0.60;99.90
14985;DHT22;7588;62.368;25.902;2022-12-07T01:11:28;-0.60;99.90
14985;DHT22;7588;62.368;25.902;2022-12-07T01:13:56;-0.70;99.90
14985;DHT22;7588;62.368;25.902;2022-12-07T01:16:24;-0.70;99.90
14985;DHT22;7588;62.368;25.902;2022-12-07T01:18:52;-0.60;99.90
14985;DHT22;7588;62.368;25.902;2022-12-07T01:21:23;-0.60;99.90
14985;DHT22;7588;62.368;25.902;2022-12-07T01:23:50;-0.50;99.90
14985;DHT22;7588;62.368;25.902;2022-12-07T01:26:18;-0.60;99.90
14985;DHT22;7588;62.368;25.902;2022-12-07T01:28:44;-0.60;99.90
14985;DHT22;7588;62.368;25.902;2022-12-07T01:31:13;-0.60;99.90
14985;DHT22;7588;62.368;25.902;2022-12-07T01:33:41;-0.60;99.90
14985;DHT22;7588;62.368;25.902;2022-12-07T01:38:34;-0.60;99.90
14985;DHT22;7588;62.368;25.902;2022-12-07T01:41:01;-0.60;99.90
14985;DHT22;7588;62.368;25.902;2022-12-07T01:43:29;-0.60;99.90
14985;DHT22;7588;62.368;25.902;2022-12-07T01:45:55;-0.70;99.90
14985;DHT22;7588;62.368;25.902;2022-12-07T01:48:33;-0.70;99.90
14985;DHT22;7588;62.368;25.902;2022-12-07T01:51:03;-0.70;99.90
14985;DHT22;7588;62.368;25.902;2022-12-07T01:53:30;-0.70;99.90
14985;DHT22;7588;62.368;25.902;2022-12-07T01:55:56;-0.70;99.90
14985;DHT22;7588;62.368;25.902;2022-12-07T01:58:24;-0.80;99.90
14985;DHT22;7588;62.368;25.902;2022-12-07T02:00:50;-0.80;99.90
14985;DHT22;7588;62.368;25.902;2022-12-07T02:05:45;-0.90;99.90
14985;DHT22;7588;62.368;25.902;2022-12-07T02:08:12;-0.90;99.90
14985;DHT22;7588;62.368;25.902;2022-12-07T02:10:39;-0.90;99.90
14985;DHT22;7588;62.368;25.902;2022-12-07T02:13:17;-1.00;99.90
14985;DHT22;7588;62.368;25.902;2022-12-07T02:23:56;-1.10;99.90
14985;DHT22;7588;62.368;25.902;2022-12-07T02:29:26;-1.10;99.90
14985;DHT22;7588;62.368;25.902;2022-12-07T02:35:17;-1.20;99.90
14985;DHT22;7588;62.368;25.902;2022-12-07T02:38:02;-1.20;99.90
14985;DHT22;7588;62.368;25.902;2022-12-07T02:40:31;-1.20;99.90
14985;DHT22;7588;62.368;25.902;2022-12-07T02:43:06;-1.20;99.90
14985;DHT22;7588;62.368;25.902;2022-12-07T02:45:36;-1.30;99.90
14985;DHT22;7588;62.368;25.902;2022-12-07T02:48:02;-1.30;99.90
14985;DHT22;7588;62.368;25.902;2022-12-07T02:50:29;-1.40;99.90
14985;DHT22;7588;62.368;25.902;2022-12-07T02:52:55;-1.40;99.90
14985;DHT22;7588;62.368;25.902;2022-12-07T02:55:29;-1.40;99.90
14985;DHT22;7588;62.368;25.902;2022-12-07T03:01:16;-1.50;99.90
14985;DHT22;7588;62.368;25.902;2022-12-07T03:03:47;-1.50;99.90
14985;DHT22;7588;62.368;25.902;2022-12-07T03:06:24;-1.50;99.90
14985;DHT22;7588;62.368;25.902;2022-12-07T03:09:09;-1.50;99.90
14985;DHT22;7588;62.368;25.902;2022-12-07T03:14:15;-1.60;99.90
14985;DHT22;7588;62.368;25.902;2022-12-07T03:17:37;-1.70;99.90
14985;DHT22;7588;62.368;25.902;2022-12-07T03:19:44;-1.80;99.90
14985;DHT22;7588;62.368;25.902;2022-12-07T03:22:13;-1.90;99.90
14985;DHT22;7588;62.368;25.902;2022-12-07T03:24:50;-2.00;99.90
14985;DHT22;7588;62.368;25.902;2022-12-07T03:27:37;-2.00;99.90
14985;DHT22;7588;62.368;25.902;2022-12-07T03:30:08;-2.10;99.90
14985;DHT22;7588;62.368;25.902;2022-12-07T03:32:50;-2.20;99.90
14985;DHT22;7588;62.368;25.902;2022-12-07T03:35:39;-2.20;99.90
14985;DHT22;7588;62.368;25.902;2022-12-07T03:38:14;-2.30;99.90
14985;DHT22;7588;62.368;25.902;2022-12-07T03:41:00;-2.10;99.90
14985;DHT22;7588;62.368;25.902;2022-12-07T03:43:30;-2.10;99.90
14985;DHT22;7588;62.368;25.902;2022-12-07T03:57:37;-1.90;99.90
14985;DHT22;7588;62.368;25.902;2022-12-07T04:00:07;-1.80;99.90
14985;DHT22;7588;62.368;25.902;2022-12-07T04:02:33;-1.70;99.90
14985;DHT22;7588;62.368;25.902;2022-12-07T04:04:59;-1.70;99.90
14985;DHT22;7588;62.368;25.902;2022-12-07T04:07:25;-1.60;99.90
14985;DHT22;7588;62.368;25.902;2022-12-07T04:09:51;-1.50;99.90
14985;DHT22;7588;62.368;25.902;2022-12-07T04:12:17;-1.40;99.90
14985;DHT22;7588;62.368;25.902;2022-12-07T04:14:42;-1.40;99.90
14985;DHT22;7588;62.368;25.902;2022-12-07T04:17:08;-1.40;99.90
14985;DHT22;7588;62.368;25.902;2022-12-07T04:19:34;-1.40;99.90
14985;DHT22;7588;62.368;25.902;2022-12-07T04:22:01;-1.40;99.90
14985;DHT22;7588;62.368;25.902;2022-12-07T04:24:28;-1.20;99.90
14985;DHT22;7588;62.368;25.902;2022-12-07T04:26:54;-1.20;99.90
14985;DHT22;7588;62.368;25.902;2022-12-07T04:29:20;-1.20;99.90
14985;DHT22;7588;62.368;25.902;2022-12-07T04:31:46;-1.20;99.90
14985;DHT22;7588;62.368;25.902;2022-12-07T04:34:12;-1.20;99.90
14985;DHT22;7588;62.368;25.902;2022-12-07T04:36:38;-1.20;99.90
14985;DHT22;7588;62.368;25.902;2022-12-07T04:39:05;-1.20;99.90
14985;DHT22;7588;62.368;25.902;2022-12-07T04:41:32;-1.20;99.90
14985;DHT22;7588;62.368;25.902;2022-12-07T04:44:02;-1.30;99.90
14985;DHT22;7588;62.368;25.902;2022-12-07T04:46:30;-1.30;99.90
14985;DHT22;7588;62.368;25.902;2022-12-07T04:48:57;-1.10;99.90
14985;DHT22;7588;62.368;25.902;2022-12-07T04:51:28;-1.20;99.90
14985;DHT22;7588;62.368;25.902;2022-12-07T04:53:54;-1.30;99.90
14985;DHT22;7588;62.368;25.902;2022-12-07T04:56:21;-1.30;99.90
14985;DHT22;7588;62.368;25.902;2022-12-07T04:58:47;-1.30;99.90
14985;DHT22;7588;62.368;25.902;2022-12-07T05:01:16;-1.20;99.90
14985;DHT22;7588;62.368;25.902;2022-12-07T05:03:42;-1.30;99.90
14985;DHT22;7588;62.368;25.902;2022-12-07T05:06:08;-1.30;99.90
14985;DHT22;7588;62.368;25.902;2022-12-07T05:08:35;-1.30;99.90
14985;DHT22;7588;62.368;25.902;2022-12-07T05:11:02;-1.30;99.90
14985;DHT22;7588;62.368;25.902;2022-12-07T05:13:28;-1.20;99.90
14985;DHT22;7588;62.368;25.902;2022-12-07T05:15:54;-1.30;99.90
14985;DHT22;7588;62.368;25.902;2022-12-07T05:18:20;-1.30;99.90
14985;DHT22;7588;62.368;25.902;2022-12-07T05:20:46;-1.30;99.90
14985;DHT22;7588;62.368;25.902;2022-12-07T05:23:12;-1.30;99.90
14985;DHT22;7588;62.368;25.902;2022-12-07T05:25:38;-1.20;99.90
14985;DHT22;7588;62.368;25.902;2022-12-07T05:28:05;-1.20;99.90
14985;DHT22;7588;62.368;25.902;2022-12-07T05:30:31;-1.30;99.90
14985;DHT22;7588;62.368;25.902;2022-12-07T05:32:58;-1.30;99.90
14985;DHT22;7588;62.368;25.902;2022-12-07T05:35:23;-1.30;99.90
14985;DHT22;7588;62.368;25.902;2022-12-07T05:37:49;-1.40;99.90
14985;DHT22;7588;62.368;25.902;2022-12-07T05:40:15;-1.40;99.90
14985;DHT22;7588;62.368;25.902;2022-12-07T05:42:41;-1.30;99.90
14985;DHT22;7588;62.368;25.902;2022-12-07T05:45:09;-1.30;99.90
14985;DHT22;7588;62.368;25.902;2022-12-07T05:47:35;-1.30;99.90
14985;DHT22;7588;62.368;25.902;2022-12-07T05:50:01;-1.30;99.90
14985;DHT22;7588;62.368;25.902;2022-12-07T05:52:26;-1.20;99.90
14985;DHT22;7588;62.368;25.902;2022-12-07T05:54:52;-1.30;99.90
14985;DHT22;7588;62.368;25.902;2022-12-07T05:57:19;-1.30;99.90
14985;DHT22;7588;62.368;25.902;2022-12-07T05:59:44;-1.40;99.90
14985;DHT22;7588;62.368;25.902;2022-12-07T06:02:13;-1.40;99.90
14985;DHT22;7588;62.368;25.902;2022-12-07T06:04:44;-1.40;99.90
14985;DHT22;7588;62.368;25.902;2022-12-07T06:07:12;-1.50;99.90
14985;DHT22;7588;62.368;25.902;2022-12-07T06:09:38;-1.60;99.90
14985;DHT22;7588;62.368;25.902;2022-12-07T06:12:04;-1.60;99.90
14985;DHT22;7588;62.368;25.902;2022-12-07T06:14:49;-1.60;99.90
14985;DHT22;7588;62.368;25.902;2022-12-07T06:17:15;-1.60;99.90
14985;DHT22;7588;62.368;25.902;2022-12-07T06:19:41;-1.60;99.90
14985;DHT22;7588;62.368;25.902;2022-12-07T06:22:10;-1.60;99.90
14985;DHT22;7588;62.368;25.902;2022-12-07T06:24:37;-1.60;99.90
14985;DHT22;7588;62.368;25.902;2022-12-07T06:27:03;-1.70;99.90
14985;DHT22;7588;62.368;25.902;2022-12-07T06:29:29;-1.70;99.90
14985;DHT22;7588;62.368;25.902;2022-12-07T06:31:54;-1.70;99.90
14985;DHT22;7588;62.368;25.902;2022-12-07T06:34:21;-1.70;99.90
14985;DHT22;7588;62.368;25.902;2022-12-07T06:36:50;-1.60;99.90
14985;DHT22;7588;62.368;25.902;2022-12-07T06:39:18;-1.70;99.90
14985;DHT22;7588;62.368;25.902;2022-12-07T06:41:44;-1.70;99.90
14985;DHT22;7588;62.368;25.902;2022-12-07T06:44:10;-1.70;99.90
14985;DHT22;7588;62.368;25.902;2022-12-07T06:46:36;-1.70;99.90
14985;DHT22;7588;62.368;25.902;2022-12-07T06:49:03;-1.80;99.90
14985;DHT22;7588;62.368;25.902;2022-12-07T06:51:28;-1.80;99.90
14985;DHT22;7588;62.368;25.902;2022-12-07T06:53:55;-1.70;99.90
14985;DHT22;7588;62.368;25.902;2022-12-07T06:56:21;-1.80;99.90
14985;DHT22;7588;62.368;25.902;2022-12-07T06:58:48;-1.80;99.90
14985;DHT22;7588;62.368;25.902;2022-12-07T07:01:16;-1.80;99.90
14985;DHT22;7588;62.368;25.902;2022-12-07T07:03:43;-1.80;99.90
14985;DHT22;7588;62.368;25.902;2022-12-07T07:06:09;-1.80;99.90
14985;DHT22;7588;62.368;25.902;2022-12-07T07:08:35;-1.80;99.90
14985;DHT22;7588;62.368;25.902;2022-12-07T07:11:01;-1.80;99.90
14985;DHT22;7588;62.368;25.902;2022-12-07T07:13:27;-1.80;99.90
14985;DHT22;7588;62.368;25.902;2022-12-07T07:15:54;-1.70;99.90
14985;DHT22;7588;62.368;25.902;2022-12-07T07:18:20;-1.70;99.90
14985;DHT22;7588;62.368;25.902;2022-12-07T07:20:45;-1.70;99.90
14985;DHT22;7588;62.368;25.902;2022-12-07T07:23:11;-1.70;99.90
14985;DHT22;7588;62.368;25.902;2022-12-07T07:25:37;-1.70;99.90
14985;DHT22;7588;62.368;25.902;2022-12-07T07:28:03;-1.70;99.90
14985;DHT22;7588;62.368;25.902;2022-12-07T07:30:29;-1.70;99.90
14985;DHT22;7588;62.368;25.902;2022-12-07T07:32:59;-1.70;99.90
14985;DHT22;7588;62.368;25.902;2022-12-07T07:35:27;-1.70;99.90
14985;DHT22;7588;62.368;25.902;2022-12-07T07:37:53;-1.80;99.90
14985;DHT22;7588;62.368;25.902;2022-12-07T07:40:18;-1.80;99.90
14985;DHT22;7588;62.368;25.902;2022-12-07T07:42:47;-1.80;99.90
14985;DHT22;7588;62.368;25.902;2022-12-07T07:45:13;-1.80;99.90
14985;DHT22;7588;62.368;25.902;2022-12-07T07:47:39;-1.80;99.90
14985;DHT22;7588;62.368;25.902;2022-12-07T07:50:06;-1.80;99.90
14985;DHT22;7588;62.368;25.902;2022-12-07T07:52:31;-1.80;99.90
14985;DHT22;7588;62.368;25.902;2022-12-07T07:54:57;-1.80;99.90
14985;DHT22;7588;62.368;25.902;2022-12-07T07:57:24;-1.80;99.90
14985;DHT22;7588;62.368;25.902;2022-12-07T07:59:49;-1.80;99.90
14985;DHT22;7588;62.368;25.902;2022-12-07T08:02:17;-1.80;99.90
14985;DHT22;7588;62.368;25.902;2022-12-07T08:04:44;-1.80;99.90
14985;DHT22;7588;62.368;25.902;2022-12-07T08:07:11;-1.80;99.90
14985;DHT22;7588;62.368;25.902;2022-12-07T08:09:37;-1.80;99.90
14985;DHT22;7588;62.368;25.902;2022-12-07T08:12:03;-1.80;99.90
14985;DHT22;7588;62.368;25.902;2022-12-07T08:14:29;-1.80;99.90
14985;DHT22;7588;62.368;25.902;2022-12-07T08:16:54;-1.80;99.90
14985;DHT22;7588;62.368;25.902;2022-12-07T08:19:20;-1.70;99.90
14985;DHT22;7588;62.368;25.902;2022-12-07T08:21:46;-1.70;99.90
14985;DHT22;7588;62.368;25.902;2022-12-07T08:24:12;-1.70;99.90
14985;DHT22;7588;62.368;25.902;2022-12-07T08:26:38;-1.70;99.90
14985;DHT22;7588;62.368;25.902;2022-12-07T08:29:03;-1.70;99.90
14985;DHT22;7588;62.368;25.902;2022-12-07T08:31:29;-1.60;99.90
14985;DHT22;7588;62.368;25.902;2022-12-07T08:33:55;-1.60;99.90
14985;DHT22;7588;62.368;25.902;2022-12-07T08:36:21;-1.60;99.90
14985;DHT22;7588;62.368;25.902;2022-12-07T08:38:48;-1.60;99.90
14985;DHT22;7588;62.368;25.902;2022-12-07T08:41:14;-1.60;99.90
14985;DHT22;7588;62.368;25.902;2022-12-07T08:43:41;-1.60;99.90
14985;DHT22;7588;62.368;25.902;2022-12-07T08:46:08;-1.60;99.90
14985;DHT22;7588;62.368;25.902;2022-12-07T08:48:39;-1.60;99.90
14985;DHT22;7588;62.368;25.902;2022-12-07T08:51:06;-1.50;99.90
14985;DHT22;7588;62.368;25.902;2022-12-07T08:53:33;-1.60;99.90
14985;DHT22;7588;62.368;25.902;2022-12-07T08:56:00;-1.50;99.90
14985;DHT22;7588;62.368;25.902;2022-12-07T08:58:26;-1.60;99.90
14985;DHT22;7588;62.368;25.902;2022-12-07T09:00:52;-1.50;99.90
14985;DHT22;7588;62.368;25.902;2022-12-07T09:03:18;-1.50;99.90
14985;DHT22;7588;62.368;25.902;2022-12-07T09:05:44;-1.50;99.90
14985;DHT22;7588;62.368;25.902;2022-12-07T09:08:10;-1.50;99.90
14985;DHT22;7588;62.368;25.902;2022-12-07T09:10:36;-1.50;99.90
14985;DHT22;7588;62.368;25.902;2022-12-07T09:13:01;-1.50;99.90
14985;DHT22;7588;62.368;25.902;2022-12-07T09:15:28;-1.50;99.90
14985;DHT22;7588;62.368;25.902;2022-12-07T09:17:54;-1.50;99.90
14985;DHT22;7588;62.368;25.902;2022-12-07T09:20:20;-1.50;99.90
14985;DHT22;7588;62.368;25.902;2022-12-07T09:22:47;-1.50;99.90
14985;DHT22;7588;62.368;25.902;2022-12-07T09:25:13;-1.50;99.90
14985;DHT22;7588;62.368;25.902;2022-12-07T09:27:39;-1.50;99.90
14985;DHT22;7588;62.368;25.902;2022-12-07T09:30:06;-1.50;99.90
14985;DHT22;7588;62.368;25.902;2022-12-07T09:32:31;-1.40;99.90
14985;DHT22;7588;62.368;25.902;2022-12-07T09:34:57;-1.40;99.90
14985;DHT22;7588;62.368;25.902;2022-12-07T09:37:23;-1.40;99.90
14985;DHT22;7588;62.368;25.902;2022-12-07T09:39:49;-1.40;99.90
14985;DHT22;7588;62.368;25.902;2022-12-07T09:44:50;-1.40;99.90
14985;DHT22;7588;62.368;25.902;2022-12-07T09:47:16;-1.40;99.90
14985;DHT22;7588;62.368;25.902;2022-12-07T09:49:42;-1.50;99.90
14985;DHT22;7588;62.368;25.902;2022-12-07T09:54:36;-1.50;99.90
14985;DHT22;7588;62.368;25.902;2022-12-07T09:57:05;-1.50;99.90
14985;DHT22;7588;62.368;25.902;2022-12-07T09:59:30;-1.50;99.90
14985;DHT22;7588;62.368;25.902;2022-12-07T10:02:32;-1.50;99.90
14985;DHT22;7588;62.368;25.902;2022-12-07T10:05:00;-1.50;99.90
14985;DHT22;7588;62.368;25.902;2022-12-07T10:07:26;-1.50;99.90
14985;DHT22;7588;62.368;25.902;2022-12-07T10:09:52;-1.50;99.90
14985;DHT22;7588;62.368;25.902;2022-12-07T10:12:17;-1.50;99.90
14985;DHT22;7588;62.368;25.902;2022-12-07T10:15:04;-1.50;99.90
14985;DHT22;7588;62.368;25.902;2022-12-07T10:20:22;-1.40;99.90
14985;DHT22;7588;62.368;25.902;2022-12-07T10:25:22;-1.40;99.90
14985;DHT22;7588;62.368;25.902;2022-12-07T10:28:03;-1.40;99.90
14985;DHT22;7588;62.368;25.902;2022-12-07T10:31:16;-1.40;99.90
14985;DHT22;7588;62.368;25.902;2022-12-07T10:34:01;-1.30;99.90
14985;DHT22;7588;62.368;25.902;2022-12-07T10:36:38;-1.30;99.90
14985;DHT22;7588;62.368;25.902;2022-12-07T10:39:22;-1.30;99.90
14985;DHT22;7588;62.368;25.902;2022-12-07T10:44:22;-1.30;99.90
14985;DHT22;7588;62.368;25.902;2022-12-07T10:55:08;-1.30;99.90
14985;DHT22;7588;62.368;25.902;2022-12-07T10:57:43;-1.30;99.90
14985;DHT22;7588;62.368;25.902;2022-12-07T11:00:20;-1.30;99.90
14985;DHT22;7588;62.368;25.902;2022-12-07T11:05:26;-1.30;99.90
14985;DHT22;7588;62.368;25.902;2022-12-07T11:21:27;-1.40;99.90
14985;DHT22;7588;62.368;25.902;2022-12-07T11:24:50;-1.40;99.90
14985;DHT22;7588;62.368;25.902;2022-12-07T11:38:17;-1.50;99.90
14985;DHT22;7588;62.368;25.902;2022-12-07T11:40:48;-1.50;99.90
14985;DHT22;7588;62.368;25.902;2022-12-07T11:43:26;-1.50;99.90
14985;DHT22;7588;62.368;25.902;2022-12-07T11:46:02;-1.50;99.90
14985;DHT22;7588;62.368;25.902;2022-12-07T11:51:10;-1.50;99.90
14985;DHT22;7588;62.368;25.902;2022-12-07T11:53:53;-1.50;99.90
14985;DHT22;7588;62.368;25.902;2022-12-07T11:56:23;-1.50;99.90
14985;DHT22;7588;62.368;25.902;2022-12-07T11:58:58;-1.50;99.90
14985;DHT22;7588;62.368;25.902;2022-12-07T12:01:51;-1.50;99.90
14985;DHT22;7588;62.368;25.902;2022-12-07T12:06:49;-1.50;99.90
14985;DHT22;7588;62.368;25.902;2022-12-07T12:09:18;-1.50;99.90
14985;DHT22;7588;62.368;25.902;2022-12-07T12:22:56;-1.50;99.90
14985;DHT22;7588;62.368;25.902;2022-12-07T12:25:26;-1.50;99.90
14985;DHT22;7588;62.368;25.902;2022-12-07T12:27:55;-1.50;99.90
14985;DHT22;7588;62.368;25.902;2022-12-07T12:30:38;-1.50;99.90
14985;DHT22;7588;62.368;25.902;2022-12-07T12:33:28;-1.50;99.90
14985;DHT22;7588;62.368;25.902;2022-12-07T12:57:35;-1.50;99.90
14985;DHT22;7588;62.368;25.902;2022-12-07T13:00:17;-1.50;99.90
14985;DHT22;7588;62.368;25.902;2022-12-07T13:02:56;-1.60;99.90
14985;DHT22;7588;62.368;25.902;2022-12-07T13:05:29;-1.50;99.90
14985;DHT22;7588;62.368;25.902;2022-12-07T13:08:19;-1.50;99.90
14985;DHT22;7588;62.368;25.902;2022-12-07T13:10:45;-1.50;99.90
14985;DHT22;7588;62.368;25.902;2022-12-07T13:15:53;-1.50;99.90
14985;DHT22;7588;62.368;25.902;2022-12-07T13:23:37;-1.60;99.90
14985;DHT22;7588;62.368;25.902;2022-12-07T13:31:35;-1.50;99.90
14985;DHT22;7588;62.368;25.902;2022-12-07T13:34:02;-1.50;99.90
14985;DHT22;7588;62.368;25.902;2022-12-07T13:36:36;-1.60;99.90
14985;DHT22;7588;62.368;25.902;2022-12-07T13:41:44;-1.60;99.90
14985;DHT22;7588;62.368;25.902;2022-12-07T13:44:14;-1.60;99.90
14985;DHT22;7588;62.368;25.902;2022-12-07T13:49:27;-1.70;99.90
14985;DHT22;7588;62.368;25.902;2022-12-07T13:51:55;-1.60;99.90
14985;DHT22;7588;62.368;25.902;2022-12-07T13:54:32;-1.70;99.90
14985;DHT22;7588;62.368;25.902;2022-12-07T13:56:58;-1.60;99.90
14985;DHT22;7588;62.368;25.902;2022-12-07T13:59:25;-1.70;99.90
14985;DHT22;7588;62.368;25.902;2022-12-07T14:01:53;-1.70;99.90
14985;DHT22;7588;62.368;25.902;2022-12-07T14:04:34;-1.70;99.90
14985;DHT22;7588;62.368;25.902;2022-12-07T14:07:18;-1.70;99.90
14985;DHT22;7588;62.368;25.902;2022-12-07T14:10:03;-1.80;99.90
14985;DHT22;7588;62.368;25.902;2022-12-07T14:12:30;-1.80;99.90
14985;DHT22;7588;62.368;25.902;2022-12-07T14:14:58;-1.80;99.90
14985;DHT22;7588;62.368;25.902;2022-12-07T14:17:28;-1.80;99.90
14985;DHT22;7588;62.368;25.902;2022-12-07T14:19:59;-1.80;99.90
14985;DHT22;7588;62.368;25.902;2022-12-07T14:22:27;-1.80;99.90
14985;DHT22;7588;62.368;25.902;2022-12-07T14:25:21;-1.80;99.90
14985;DHT22;7588;62.368;25.902;2022-12-07T14:27:59;-1.80;99.90
14985;DHT22;7588;62.368;25.902;2022-12-07T14:30:30;-1.80;99.90
14985;DHT22;7588;62.368;25.902;2022-12-07T14:33:02;-1.80;99.90
14985;DHT22;7588;62.368;25.902;2022-12-07T14:35:31;-1.70;99.90
14985;DHT22;7588;62.368;25.902;2022-12-07T14:37:57;-1.80;99.90
14985;DHT22;7588;62.368;25.902;2022-12-07T14:40:28;-1.80;99.90
14985;DHT22;7588;62.368;25.902;2022-12-07T14:43:01;-1.80;99.90
14985;DHT22;7588;62.368;25.902;2022-12-07T14:45:27;-1.80;99.90
14985;DHT22;7588;62.368;25.902;2022-12-07T14:47:53;-1.80;99.90
14985;DHT22;7588;62.368;25.902;2022-12-07T14:50:20;-1.80;99.90
14985;DHT22;7588;62.368;25.902;2022-12-07T14:52:52;-1.80;99.90
14985;DHT22;7588;62.368;25.902;2022-12-07T14:55:24;-1.80;99.90
14985;DHT22;7588;62.368;25.902;2022-12-07T14:57:50;-1.80;99.90
14985;DHT22;7588;62.368;25.902;2022-12-07T15:00:18;-1.80;99.90
14985;DHT22;7588;62.368;25.902;2022-12-07T15:02:45;-1.80;99.90
14985;DHT22;7588;62.368;25.902;2022-12-07T15:05:11;-1.80;99.90
14985;DHT22;7588;62.368;25.902;2022-12-07T15:07:37;-1.80;99.90
14985;DHT22;7588;62.368;25.902;2022-12-07T15:10:03;-1.80;99.90
14985;DHT22;7588;62.368;25.902;2022-12-07T15:12:29;-1.80;99.90
14985;DHT22;7588;62.368;25.902;2022-12-07T15:14:55;-1.80;99.90
14985;DHT22;7588;62.368;25.902;2022-12-07T15:17:21;-1.80;99.90
14985;DHT22;7588;62.368;25.902;2022-12-07T15:19:46;-1.80;99.90
14985;DHT22;7588;62.368;25.902;2022-12-07T15:22:12;-1.80;99.90
14985;DHT22;7588;62.368;25.902;2022-12-07T15:24:38;-1.80;99.90
14985;DHT22;7588;62.368;25.902;2022-12-07T15:27:04;-1.80;99.90
14985;DHT22;7588;62.368;25.902;2022-12-07T15:29:30;-1.80;99.90
14985;DHT22;7588;62.368;25.902;2022-12-07T15:31:55;-1.80;99.90
14985;DHT22;7588;62.368;25.902;2022-12-07T15:34:22;-1.80;99.90
14985;DHT22;7588;62.368;25.902;2022-12-07T15:36:48;-1.80;99.90
14985;DHT22;7588;62.368;25.902;2022-12-07T15:39:14;-1.80;99.90
14985;DHT22;7588;62.368;25.902;2022-12-07T15:41:39;-1.80;99.90
14985;DHT22;7588;62.368;25.902;2022-12-07T15:44:05;-1.80;99.90
14985;DHT22;7588;62.368;25.902;2022-12-07T15:46:49;-1.80;99.90
14985;DHT22;7588;62.368;25.902;2022-12-07T15:49:17;-1.80;99.90
14985;DHT22;7588;62.368;25.902;2022-12-07T15:51:44;-1.80;99.90
14985;DHT22;7588;62.368;25.902;2022-12-07T15:54:18;-1.80;99.90
14985;DHT22;7588;62.368;25.902;2022-12-07T15:56:44;-1.80;99.90
14985;DHT22;7588;62.368;25.902;2022-12-07T15:59:10;-1.80;99.90
14985;DHT22;7588;62.368;25.902;2022-12-07T16:01:36;-1.80;99.90
14985;DHT22;7588;62.368;25.902;2022-12-07T16:04:01;-1.80;99.90
14985;DHT22;7588;62.368;25.902;2022-12-07T16:06:27;-1.80;99.90
14985;DHT22;7588;62.368;25.902;2022-12-07T16:08:53;-1.80;99.90
14985;DHT22;7588;62.368;25.902;2022-12-07T16:11:18;-1.80;99.90
14985;DHT22;7588;62.368;25.902;2022-12-07T16:13:44;-1.80;99.90
14985;DHT22;7588;62.368;25.902;2022-12-07T16:16:12;-1.90;99.90
14985;DHT22;7588;62.368;25.902;2022-12-07T16:18:39;-1.90;99.90
14985;DHT22;7588;62.368;25.902;2022-12-07T16:21:04;-1.90;99.90
14985;DHT22;7588;62.368;25.902;2022-12-07T16:23:30;-1.90;99.90
14985;DHT22;7588;62.368;25.902;2022-12-07T16:26:23;-2.00;99.90
14985;DHT22;7588;62.368;25.902;2022-12-07T16:28:50;-2.00;99.90
14985;DHT22;7588;62.368;25.902;2022-12-07T16:31:20;-2.00;99.90
14985;DHT22;7588;62.368;25.902;2022-12-07T16:33:47;-2.00;99.90
14985;DHT22;7588;62.368;25.902;2022-12-07T16:36:13;-1.90;99.90
14985;DHT22;7588;62.368;25.902;2022-12-07T16:38:41;-2.00;99.90
14985;DHT22;7588;62.368;25.902;2022-12-07T16:41:07;-2.00;99.90
14985;DHT22;7588;62.368;25.902;2022-12-07T16:43:34;-2.00;99.90
14985;DHT22;7588;62.368;25.902;2022-12-07T16:46:03;-2.00;99.90
14985;DHT22;7588;62.368;25.902;2022-12-07T16:48:29;-2.10;99.90
14985;DHT22;7588;62.368;25.902;2022-12-07T16:50:55;-2.10;99.90
14985;DHT22;7588;62.368;25.902;2022-12-07T16:53:22;-2.00;99.90
14985;DHT22;7588;62.368;25.902;2022-12-07T16:55:49;-2.10;99.90
14985;DHT22;7588;62.368;25.902;2022-12-07T16:58:15;-2.10;99.90
14985;DHT22;7588;62.368;25.902;2022-12-07T17:00:43;-2.10;99.90
14985;DHT22;7588;62.368;25.902;2022-12-07T17:03:10;-2.10;99.90
14985;DHT22;7588;62.368;25.902;2022-12-07T17:05:40;-2.10;99.90
14985;DHT22;7588;62.368;25.902;2022-12-07T17:08:06;-2.10;99.90
14985;DHT22;7588;62.368;25.902;2022-12-07T17:10:35;-2.20;99.90
14985;DHT22;7588;62.368;25.902;2022-12-07T17:13:02;-2.20;99.90
14985;DHT22;7588;62.368;25.902;2022-12-07T17:15:58;-2.20;99.90
14985;DHT22;7588;62.368;25.902;2022-12-07T17:18:27;-2.20;99.90
14985;DHT22;7588;62.368;25.902;2022-12-07T17:20:53;-2.20;99.90
14985;DHT22;7588;62.368;25.902;2022-12-07T17:23:19;-2.20;99.90
14985;DHT22;7588;62.368;25.902;2022-12-07T17:25:45;-2.20;99.90
14985;DHT22;7588;62.368;25.902;2022-12-07T17:28:11;-2.20;99.90
14985;DHT22;7588;62.368;25.902;2022-12-07T17:30:38;-2.20;99.90
14985;DHT22;7588;62.368;25.902;2022-12-07T17:33:04;-2.30;99.90
14985;DHT22;7588;62.368;25.902;2022-12-07T17:35:29;-2.20;99.90
14985;DHT22;7588;62.368;25.902;2022-12-07T17:37:55;-2.30;99.90
14985;DHT22;7588;62.368;25.902;2022-12-07T17:40:21;-2.30;99.90
14985;DHT22;7588;62.368;25.902;2022-12-07T17:42:47;-2.30;99.90
14985;DHT22;7588;62.368;25.902;2022-12-07T17:45:16;-2.30;99.90
14985;DHT22;7588;62.368;25.902;2022-12-07T17:47:42;-2.30;99.90
14985;DHT22;7588;62.368;25.902;2022-12-07T17:50:09;-2.30;99.90
14985;DHT22;7588;62.368;25.902;2022-12-07T17:52:38;-2.30;99.90
14985;DHT22;7588;62.368;25.902;2022-12-07T17:55:22;-2.30;99.90
14985;DHT22;7588;62.368;25.902;2022-12-07T17:57:48;-2.30;99.90
14985;DHT22;7588;62.368;25.902;2022-12-07T18:00:14;-2.30;99.90
14985;DHT22;7588;62.368;25.902;2022-12-07T18:02:40;-2.40;99.90